sensor_id;sensor_type;location;lat;lon;timestamp;P1;durP1;ratioP1;P2;durP2;ratioP2
64459;SDS011;50828;53.756;21.140;2023-04-24T00:01:46;8.90;;;4.70;;
64459;SDS011;50828;53.756;21.140;2023-04-24T00:06:55;9.90;;;5.20;;
64459;SDS011;50828;53.756;21.140;2023-04-24T00:12:03;11.60;;;6.50;;
64459;SDS011;50828;53.756;21.140;2023-04-24T00:17:11;9.10;;;5.80;;
64459;SDS011;50828;53.756;21.140;2023-04-24T00:22:19;9.10;;;5.80;;
64459;SDS011;50828;53.756;21.140;2023-04-24T00:27:28;8.00;;;5.20;;
64459;SDS011;50828;53.756;21.140;2023-04-24T00:32:35;10.60;;;5.30;;
64459;SDS011;50828;53.756;21.140;2023-04-24T00:37:42;10.70;;;5.50;;
64459;SDS011;50828;53.756;21.140;2023-04-24T00:42:50;8.30;;;5.40;;
64459;SDS011;50828;53.756;21.140;2023-04-24T00:47:58;8.80;;;5.00;;
64459;SDS011;50828;53.756;21.140;2023-04-24T00:53:07;8.40;;;5.30;;
64459;SDS011;50828;53.756;21.140;2023-04-24T00:58:15;9.50;;;5.80;;
64459;SDS011;50828;53.756;21.140;2023-04-24T01:03:24;9.90;;;6.00;;
64459;SDS011;50828;53.756;21.140;2023-04-24T01:08:35;8.50;;;6.00;;
64459;SDS011;50828;53.756;21.140;2023-04-24T01:13:44;10.10;;;6.30;;
64459;SDS011;50828;53.756;21.140;2023-04-24T01:18:52;13.30;;;6.20;;
64459;SDS011;50828;53.756;21.140;2023-04-24T01:23:59;10.60;;;5.60;;
64459;SDS011;50828;53.756;21.140;2023-04-24T01:29:08;11.80;;;5.80;;
64459;SDS011;50828;53.756;21.140;2023-04-24T01:34:18;9.60;;;5.10;;
64459;SDS011;50828;53.756;21.140;2023-04-24T01:39:27;9.50;;;5.60;;
64459;SDS011;50828;53.756;21.140;2023-04-24T01:44:35;9.20;;;5.60;;
64459;SDS011;50828;53.756;21.140;2023-04-24T01:49:42;9.80;;;5.40;;
64459;SDS011;50828;53.756;21.140;2023-04-24T01:54:51;9.20;;;5.40;;
64459;SDS011;50828;53.756;21.140;2023-04-24T01:59:59;9.40;;;5.40;;
64459;SDS011;50828;53.756;21.140;2023-04-24T02:05:15;10.70;;;5.80;;
64459;SDS011;50828;53.756;21.140;2023-04-24T02:10:23;12.60;;;6.10;;
64459;SDS011;50828;53.756;21.140;2023-04-24T02:15:30;13.10;;;6.50;;
64459;SDS011;50828;53.756;21.140;2023-04-24T02:20:40;11.70;;;5.60;;
64459;SDS011;50828;53.756;21.140;2023-04-24T02:25:47;9.20;;;5.40;;
64459;SDS011;50828;53.756;21.140;2023-04-24T02:30:56;9.20;;;5.00;;
64459;SDS011;50828;53.756;21.140;2023-04-24T02:36:04;10.80;;;6.40;;
64459;SDS011;50828;53.756;21.140;2023-04-24T02:41:12;10.70;;;6.00;;
64459;SDS011;50828;53.756;21.140;2023-04-24T02:46:20;9.50;;;6.70;;
64459;SDS011;50828;53.756;21.140;2023-04-24T02:51:27;11.20;;;6.20;;
64459;SDS011;50828;53.756;21.140;2023-04-24T02:56:35;10.00;;;5.80;;
64459;SDS011;50828;53.756;21.140;2023-04-24T03:01:43;10.90;;;5.80;;
64459;SDS011;50828;53.756;21.140;2023-04-24T03:06:51;9.50;;;5.90;;
64459;SDS011;50828;53.756;21.140;2023-04-24T03:12:00;8.60;;;5.30;;
64459;SDS011;50828;53.756;21.140;2023-04-24T03:17:07;8.40;;;5.60;;
64459;SDS011;50828;53.756;21.140;2023-04-24T03:22:15;10.60;;;5.50;;
64459;SDS011;50828;53.756;21.140;2023-04-24T03:27:23;9.00;;;5.40;;
64459;SDS011;50828;53.756;21.140;2023-04-24T03:32:35;10.40;;;6.00;;
64459;SDS011;50828;53.756;21.140;2023-04-24T03:37:45;10.20;;;5.70;;
64459;SDS011;50828;53.756;21.140;2023-04-24T03:43:23;9.20;;;5.70;;
64459;SDS011;50828;53.756;21.140;2023-04-24T03:48:32;9.00;;;6.20;;
64459;SDS011;50828;53.756;21.140;2023-04-24T03:53:42;8.50;;;5.60;;
64459;SDS011;50828;53.756;21.140;2023-04-24T03:58:52;8.90;;;5.60;;
64459;SDS011;50828;53.756;21.140;2023-04-24T04:04:00;10.90;;;5.80;;
64459;SDS011;50828;53.756;21.140;2023-04-24T04:09:08;9.00;;;6.40;;
64459;SDS011;50828;53.756;21.140;2023-04-24T04:14:16;8.70;;;5.90;;
64459;SDS011;50828;53.756;21.140;2023-04-24T04:19:24;9.90;;;6.20;;
64459;SDS011;50828;53.756;21.140;2023-04-24T04:24:32;8.10;;;5.90;;
64459;SDS011;50828;53.756;21.140;2023-04-24T04:29:42;9.20;;;6.10;;
64459;SDS011;50828;53.756;21.140;2023-04-24T04:34:53;8.40;;;6.00;;
64459;SDS011;50828;53.756;21.140;2023-04-24T04:40:02;8.90;;;6.00;;
64459;SDS011;50828;53.756;21.140;2023-04-24T04:45:16;9.80;;;5.50;;
64459;SDS011;50828;53.756;21.140;2023-04-24T04:50:44;8.80;;;5.80;;
64459;SDS011;50828;53.756;21.140;2023-04-24T04:55:52;9.90;;;6.00;;
64459;SDS011;50828;53.756;21.140;2023-04-24T05:01:06;7.90;;;6.00;;
64459;SDS011;50828;53.756;21.140;2023-04-24T05:06:17;8.30;;;5.80;;
64459;SDS011;50828;53.756;21.140;2023-04-24T05:11:27;11.10;;;6.80;;
64459;SDS011;50828;53.756;21.140;2023-04-24T05:16:34;10.70;;;6.00;;
64459;SDS011;50828;53.756;21.140;2023-04-24T05:21:44;11.30;;;6.60;;
64459;SDS011;50828;53.756;21.140;2023-04-24T05:26:52;10.30;;;6.10;;
64459;SDS011;50828;53.756;21.140;2023-04-24T05:32:05;11.00;;;6.40;;
64459;SDS011;50828;53.756;21.140;2023-04-24T05:37:13;9.80;;;6.10;;
64459;SDS011;50828;53.756;21.140;2023-04-24T05:42:20;9.70;;;6.20;;
64459;SDS011;50828;53.756;21.140;2023-04-24T05:47:29;8.40;;;5.50;;
64459;SDS011;50828;53.756;21.140;2023-04-24T05:52:37;9.60;;;5.90;;
64459;SDS011;50828;53.756;21.140;2023-04-24T05:57:56;9.30;;;5.50;;
64459;SDS011;50828;53.756;21.140;2023-04-24T06:03:05;7.70;;;5.30;;
64459;SDS011;50828;53.756;21.140;2023-04-24T06:08:16;9.50;;;5.40;;
64459;SDS011;50828;53.756;21.140;2023-04-24T06:13:24;8.50;;;5.40;;
64459;SDS011;50828;53.756;21.140;2023-04-24T06:18:50;8.90;;;5.20;;
64459;SDS011;50828;53.756;21.140;2023-04-24T06:23:59;8.50;;;5.20;;
64459;SDS011;50828;53.756;21.140;2023-04-24T06:29:08;6.30;;;4.90;;
64459;SDS011;50828;53.756;21.140;2023-04-24T06:34:16;6.30;;;4.40;;
64459;SDS011;50828;53.756;21.140;2023-04-24T06:39:24;8.80;;;4.50;;
64459;SDS011;50828;53.756;21.140;2023-04-24T06:44:31;6.40;;;4.30;;
64459;SDS011;50828;53.756;21.140;2023-04-24T06:49:44;7.00;;;4.70;;
64459;SDS011;50828;53.756;21.140;2023-04-24T06:54:51;5.70;;;4.00;;
64459;SDS011;50828;53.756;21.140;2023-04-24T07:00:05;7.50;;;3.80;;
64459;SDS011;50828;53.756;21.140;2023-04-24T07:05:15;8.10;;;3.70;;
64459;SDS011;50828;53.756;21.140;2023-04-24T07:10:23;5.70;;;3.50;;
64459;SDS011;50828;53.756;21.140;2023-04-24T07:15:32;4.70;;;3.30;;
64459;SDS011;50828;53.756;21.140;2023-04-24T07:20:40;6.10;;;3.30;;
64459;SDS011;50828;53.756;21.140;2023-04-24T07:25:48;5.70;;;2.70;;
64459;SDS011;50828;53.756;21.140;2023-04-24T07:30:56;8.80;;;2.30;;
64459;SDS011;50828;53.756;21.140;2023-04-24T07:36:04;2.40;;;2.00;;
64459;SDS011;50828;53.756;21.140;2023-04-24T07:41:19;3.20;;;1.90;;
64459;SDS011;50828;53.756;21.140;2023-04-24T07:46:28;3.30;;;2.00;;
64459;SDS011;50828;53.756;21.140;2023-04-24T07:51:37;3.90;;;2.30;;
64459;SDS011;50828;53.756;21.140;2023-04-24T07:56:45;3.70;;;2.60;;
64459;SDS011;50828;53.756;21.140;2023-04-24T08:01:53;3.20;;;2.00;;
64459;SDS011;50828;53.756;21.140;2023-04-24T08:07:01;5.50;;;2.30;;
64459;SDS011;50828;53.756;21.140;2023-04-24T08:12:09;4.30;;;2.10;;
64459;SDS011;50828;53.756;21.140;2023-04-24T08:17:17;3.30;;;2.20;;
64459;SDS011;50828;53.756;21.140;2023-04-24T08:22:25;2.60;;;1.90;;
64459;SDS011;50828;53.756;21.140;2023-04-24T08:27:33;3.90;;;2.20;;
64459;SDS011;50828;53.756;21.140;2023-04-24T08:32:42;3.40;;;2.20;;
64459;SDS011;50828;53.756;21.140;2023-04-24T08:37:51;4.00;;;2.10;;
64459;SDS011;50828;53.756;21.140;2023-04-24T08:43:00;3.00;;;1.90;;
64459;SDS011;50828;53.756;21.140;2023-04-24T08:48:08;3.00;;;2.00;;
64459;SDS011;50828;53.756;21.140;2023-04-24T08:53:32;2.70;;;2.10;;
64459;SDS011;50828;53.756;21.140;2023-04-24T08:58:40;3.00;;;1.90;;
64459;SDS011;50828;53.756;21.140;2023-04-24T09:03:49;3.00;;;2.20;;
64459;SDS011;50828;53.756;21.140;2023-04-24T09:08:57;5.50;;;2.60;;
64459;SDS011;50828;53.756;21.140;2023-04-24T09:14:07;5.00;;;2.80;;
64459;SDS011;50828;53.756;21.140;2023-04-24T09:19:16;6.10;;;3.50;;
64459;SDS011;50828;53.756;21.140;2023-04-24T09:24:26;6.90;;;3.80;;
64459;SDS011;50828;53.756;21.140;2023-04-24T09:29:34;6.00;;;4.00;;
64459;SDS011;50828;53.756;21.140;2023-04-24T09:34:41;5.50;;;3.80;;
64459;SDS011;50828;53.756;21.140;2023-04-24T09:39:59;4.60;;;3.40;;
64459;SDS011;50828;53.756;21.140;2023-04-24T09:45:16;8.70;;;3.40;;
64459;SDS011;50828;53.756;21.140;2023-04-24T09:50:23;5.20;;;3.50;;
64459;SDS011;50828;53.756;21.140;2023-04-24T09:55:31;6.40;;;3.10;;
64459;SDS011;50828;53.756;21.140;2023-04-24T10:00:44;6.30;;;3.40;;
64459;SDS011;50828;53.756;21.140;2023-04-24T10:05:53;5.80;;;3.80;;
64459;SDS011;50828;53.756;21.140;2023-04-24T10:11:03;6.70;;;3.90;;
64459;SDS011;50828;53.756;21.140;2023-04-24T10:16:14;5.40;;;3.70;;
64459;SDS011;50828;53.756;21.140;2023-04-24T10:21:22;6.80;;;4.00;;
64459;SDS011;50828;53.756;21.140;2023-04-24T10:26:30;6.10;;;3.90;;
64459;SDS011;50828;53.756;21.140;2023-04-24T10:31:39;6.50;;;3.70;;
64459;SDS011;50828;53.756;21.140;2023-04-24T10:36:50;6.50;;;4.20;;
64459;SDS011;50828;53.756;21.140;2023-04-24T10:42:00;5.30;;;3.90;;
64459;SDS011;50828;53.756;21.140;2023-04-24T10:47:19;6.80;;;4.70;;
64459;SDS011;50828;53.756;21.140;2023-04-24T10:52:26;7.00;;;4.70;;
64459;SDS011;50828;53.756;21.140;2023-04-24T11:03:24;8.10;;;5.00;;
64459;SDS011;50828;53.756;21.140;2023-04-24T11:19:22;7.30;;;4.60;;
64459;SDS011;50828;53.756;21.140;2023-04-24T11:24:38;6.50;;;4.70;;
64459;SDS011;50828;53.756;21.140;2023-04-24T11:30:00;6.40;;;4.40;;
64459;SDS011;50828;53.756;21.140;2023-04-24T11:35:10;7.00;;;4.60;;
64459;SDS011;50828;53.756;21.140;2023-04-24T11:40:21;8.20;;;4.80;;
64459;SDS011;50828;53.756;21.140;2023-04-24T11:45:30;6.90;;;4.20;;
64459;SDS011;50828;53.756;21.140;2023-04-24T11:50:38;5.40;;;4.00;;
64459;SDS011;50828;53.756;21.140;2023-04-24T11:55:51;6.00;;;4.10;;
64459;SDS011;50828;53.756;21.140;2023-04-24T12:00:59;6.70;;;4.00;;
64459;SDS011;50828;53.756;21.140;2023-04-24T12:06:07;9.00;;;4.40;;
64459;SDS011;50828;53.756;21.140;2023-04-24T12:11:16;6.10;;;4.10;;
64459;SDS011;50828;53.756;21.140;2023-04-24T12:16:26;8.40;;;4.60;;
64459;SDS011;50828;53.756;21.140;2023-04-24T12:21:35;7.90;;;4.50;;
64459;SDS011;50828;53.756;21.140;2023-04-24T12:26:44;5.60;;;4.20;;
64459;SDS011;50828;53.756;21.140;2023-04-24T12:31:51;7.50;;;4.50;;
64459;SDS011;50828;53.756;21.140;2023-04-24T12:37:10;6.90;;;4.60;;
64459;SDS011;50828;53.756;21.140;2023-04-24T12:42:25;9.20;;;5.00;;
64459;SDS011;50828;53.756;21.140;2023-04-24T12:47:34;7.60;;;5.20;;
64459;SDS011;50828;53.756;21.140;2023-04-24T12:52:42;6.80;;;4.80;;
64459;SDS011;50828;53.756;21.140;2023-04-24T12:57:50;7.90;;;5.30;;
64459;SDS011;50828;53.756;21.140;2023-04-24T13:02:59;7.70;;;5.90;;
64459;SDS011;50828;53.756;21.140;2023-04-24T13:08:07;7.30;;;5.10;;
64459;SDS011;50828;53.756;21.140;2023-04-24T13:13:16;7.40;;;5.10;;
64459;SDS011;50828;53.756;21.140;2023-04-24T13:18:24;6.80;;;4.90;;
64459;SDS011;50828;53.756;21.140;2023-04-24T13:23:32;6.20;;;4.90;;
64459;SDS011;50828;53.756;21.140;2023-04-24T13:28:40;7.50;;;4.80;;
64459;SDS011;50828;53.756;21.140;2023-04-24T13:33:49;6.00;;;4.70;;
64459;SDS011;50828;53.756;21.140;2023-04-24T13:38:57;6.90;;;4.80;;
64459;SDS011;50828;53.756;21.140;2023-04-24T13:44:05;7.50;;;4.70;;
64459;SDS011;50828;53.756;21.140;2023-04-24T13:49:13;6.10;;;4.40;;
64459;SDS011;50828;53.756;21.140;2023-04-24T13:54:21;5.80;;;4.60;;
64459;SDS011;50828;53.756;21.140;2023-04-24T13:59:30;5.50;;;4.20;;
64459;SDS011;50828;53.756;21.140;2023-04-24T14:04:38;7.40;;;4.10;;
64459;SDS011;50828;53.756;21.140;2023-04-24T14:09:46;6.00;;;4.10;;
64459;SDS011;50828;53.756;21.140;2023-04-24T14:14:54;6.20;;;4.10;;
64459;SDS011;50828;53.756;21.140;2023-04-24T14:20:02;7.70;;;4.80;;
64459;SDS011;50828;53.756;21.140;2023-04-24T14:25:10;6.90;;;4.60;;
64459;SDS011;50828;53.756;21.140;2023-04-24T14:30:19;7.30;;;4.80;;
64459;SDS011;50828;53.756;21.140;2023-04-24T14:35:26;6.50;;;4.50;;
64459;SDS011;50828;53.756;21.140;2023-04-24T14:40:35;6.20;;;4.40;;
64459;SDS011;50828;53.756;21.140;2023-04-24T14:45:46;9.50;;;4.80;;
64459;SDS011;50828;53.756;21.140;2023-04-24T14:50:54;6.30;;;4.90;;
64459;SDS011;50828;53.756;21.140;2023-04-24T14:56:02;10.50;;;4.80;;
64459;SDS011;50828;53.756;21.140;2023-04-24T15:01:10;6.60;;;5.20;;
64459;SDS011;50828;53.756;21.140;2023-04-24T15:06:20;6.30;;;4.30;;
64459;SDS011;50828;53.756;21.140;2023-04-24T15:11:27;8.00;;;5.00;;
64459;SDS011;50828;53.756;21.140;2023-04-24T15:16:37;8.80;;;5.20;;
64459;SDS011;50828;53.756;21.140;2023-04-24T15:21:45;5.60;;;4.70;;
64459;SDS011;50828;53.756;21.140;2023-04-24T15:26:52;8.80;;;4.90;;
64459;SDS011;50828;53.756;21.140;2023-04-24T15:32:03;6.70;;;4.90;;
64459;SDS011;50828;53.756;21.140;2023-04-24T15:37:12;8.20;;;4.20;;
64459;SDS011;50828;53.756;21.140;2023-04-24T15:42:21;6.10;;;4.40;;
64459;SDS011;50828;53.756;21.140;2023-04-24T15:47:28;5.80;;;4.10;;
64459;SDS011;50828;53.756;21.140;2023-04-24T15:52:37;7.50;;;4.40;;
64459;SDS011;50828;53.756;21.140;2023-04-24T15:57:45;5.90;;;4.30;;
64459;SDS011;50828;53.756;21.140;2023-04-24T16:02:52;5.70;;;4.30;;
64459;SDS011;50828;53.756;21.140;2023-04-24T16:08:00;7.40;;;4.40;;
64459;SDS011;50828;53.756;21.140;2023-04-24T16:13:08;6.50;;;4.40;;
64459;SDS011;50828;53.756;21.140;2023-04-24T16:18:16;6.50;;;4.70;;
64459;SDS011;50828;53.756;21.140;2023-04-24T16:23:23;5.20;;;4.00;;
64459;SDS011;50828;53.756;21.140;2023-04-24T16:28:31;6.80;;;4.80;;
64459;SDS011;50828;53.756;21.140;2023-04-24T16:33:38;6.80;;;4.90;;
64459;SDS011;50828;53.756;21.140;2023-04-24T16:38:46;7.20;;;5.00;;
64459;SDS011;50828;53.756;21.140;2023-04-24T16:43:53;7.60;;;4.80;;
64459;SDS011;50828;53.756;21.140;2023-04-24T16:49:01;6.40;;;5.10;;
64459;SDS011;50828;53.756;21.140;2023-04-24T16:54:09;9.70;;;5.30;;
64459;SDS011;50828;53.756;21.140;2023-04-24T16:59:16;7.80;;;5.40;;
64459;SDS011;50828;53.756;21.140;2023-04-24T17:04:24;9.20;;;4.60;;
64459;SDS011;50828;53.756;21.140;2023-04-24T17:09:32;7.80;;;5.10;;
64459;SDS011;50828;53.756;21.140;2023-04-24T17:14:40;7.50;;;5.00;;
64459;SDS011;50828;53.756;21.140;2023-04-24T17:19:47;7.50;;;4.90;;
64459;SDS011;50828;53.756;21.140;2023-04-24T17:24:55;8.30;;;5.50;;
64459;SDS011;50828;53.756;21.140;2023-04-24T17:30:02;6.90;;;4.80;;
64459;SDS011;50828;53.756;21.140;2023-04-24T17:35:11;7.80;;;5.50;;
64459;SDS011;50828;53.756;21.140;2023-04-24T17:40:19;6.60;;;5.00;;
64459;SDS011;50828;53.756;21.140;2023-04-24T17:45:26;9.00;;;5.40;;
64459;SDS011;50828;53.756;21.140;2023-04-24T17:50:34;6.60;;;5.10;;
64459;SDS011;50828;53.756;21.140;2023-04-24T17:55:42;8.20;;;5.50;;
64459;SDS011;50828;53.756;21.140;2023-04-24T18:00:50;16.50;;;8.00;;
64459;SDS011;50828;53.756;21.140;2023-04-24T18:05:58;14.30;;;8.50;;
64459;SDS011;50828;53.756;21.140;2023-04-24T18:11:05;18.50;;;9.90;;
64459;SDS011;50828;53.756;21.140;2023-04-24T18:16:13;19.30;;;9.90;;
64459;SDS011;50828;53.756;21.140;2023-04-24T18:21:22;21.50;;;10.10;;
64459;SDS011;50828;53.756;21.140;2023-04-24T18:26:31;14.00;;;8.50;;
64459;SDS011;50828;53.756;21.140;2023-04-24T18:31:38;11.80;;;7.50;;
64459;SDS011;50828;53.756;21.140;2023-04-24T18:36:46;10.50;;;6.50;;
64459;SDS011;50828;53.756;21.140;2023-04-24T18:41:53;31.40;;;10.40;;
64459;SDS011;50828;53.756;21.140;2023-04-24T18:47:01;25.60;;;11.60;;
64459;SDS011;50828;53.756;21.140;2023-04-24T18:52:09;42.00;;;18.80;;
64459;SDS011;50828;53.756;21.140;2023-04-24T18:57:16;62.90;;;29.80;;
64459;SDS011;50828;53.756;21.140;2023-04-24T19:02:25;38.00;;;20.60;;
64459;SDS011;50828;53.756;21.140;2023-04-24T19:07:33;18.70;;;10.90;;
64459;SDS011;50828;53.756;21.140;2023-04-24T19:12:40;14.50;;;9.20;;
64459;SDS011;50828;53.756;21.140;2023-04-24T19:17:47;10.20;;;7.20;;
64459;SDS011;50828;53.756;21.140;2023-04-24T19:22:55;13.30;;;7.70;;
64459;SDS011;50828;53.756;21.140;2023-04-24T19:28:03;11.10;;;6.80;;
64459;SDS011;50828;53.756;21.140;2023-04-24T19:33:11;12.10;;;7.40;;
64459;SDS011;50828;53.756;21.140;2023-04-24T19:38:19;13.80;;;8.30;;
64459;SDS011;50828;53.756;21.140;2023-04-24T19:43:27;12.00;;;7.60;;
64459;SDS011;50828;53.756;21.140;2023-04-24T19:48:34;12.80;;;8.40;;
64459;SDS011;50828;53.756;21.140;2023-04-24T19:53:42;16.80;;;8.80;;
64459;SDS011;50828;53.756;21.140;2023-04-24T19:58:50;11.80;;;7.60;;
64459;SDS011;50828;53.756;21.140;2023-04-24T20:03:57;8.70;;;6.50;;
64459;SDS011;50828;53.756;21.140;2023-04-24T20:09:06;9.00;;;5.90;;
64459;SDS011;50828;53.756;21.140;2023-04-24T20:14:14;10.00;;;5.90;;
64459;SDS011;50828;53.756;21.140;2023-04-24T20:19:21;10.40;;;7.00;;
64459;SDS011;50828;53.756;21.140;2023-04-24T20:24:29;8.70;;;6.60;;
64459;SDS011;50828;53.756;21.140;2023-04-24T20:29:36;8.20;;;6.00;;
64459;SDS011;50828;53.756;21.140;2023-04-24T20:34:43;6.40;;;5.60;;
64459;SDS011;50828;53.756;21.140;2023-04-24T20:39:51;8.00;;;5.70;;
64459;SDS011;50828;53.756;21.140;2023-04-24T20:44:59;7.80;;;5.40;;
64459;SDS011;50828;53.756;21.140;2023-04-24T20:50:08;7.60;;;5.40;;
64459;SDS011;50828;53.756;21.140;2023-04-24T20:55:16;6.70;;;5.00;;
64459;SDS011;50828;53.756;21.140;2023-04-24T21:00:24;7.70;;;5.60;;
64459;SDS011;50828;53.756;21.140;2023-04-24T21:05:31;8.90;;;6.30;;
64459;SDS011;50828;53.756;21.140;2023-04-24T21:10:39;8.60;;;6.10;;
64459;SDS011;50828;53.756;21.140;2023-04-24T21:15:46;8.90;;;6.00;;
64459;SDS011;50828;53.756;21.140;2023-04-24T21:20:55;7.30;;;5.70;;
64459;SDS011;50828;53.756;21.140;2023-04-24T21:26:02;7.10;;;5.50;;
64459;SDS011;50828;53.756;21.140;2023-04-24T21:31:10;7.70;;;5.90;;
64459;SDS011;50828;53.756;21.140;2023-04-24T21:36:18;10.20;;;6.20;;
64459;SDS011;50828;53.756;21.140;2023-04-24T21:41:26;12.40;;;6.50;;
64459;SDS011;50828;53.756;21.140;2023-04-24T21:46:34;9.10;;;5.80;;
64459;SDS011;50828;53.756;21.140;2023-04-24T21:51:41;9.10;;;6.20;;
64459;SDS011;50828;53.756;21.140;2023-04-24T21:56:49;8.80;;;6.00;;
64459;SDS011;50828;53.756;21.140;2023-04-24T22:01:57;7.70;;;6.10;;
64459;SDS011;50828;53.756;21.140;2023-04-24T22:07:05;9.20;;;6.40;;
64459;SDS011;50828;53.756;21.140;2023-04-24T22:12:12;8.80;;;6.70;;
64459;SDS011;50828;53.756;21.140;2023-04-24T22:17:20;12.20;;;7.20;;
64459;SDS011;50828;53.756;21.140;2023-04-24T22:22:28;10.60;;;7.10;;
64459;SDS011;50828;53.756;21.140;2023-04-24T22:27:36;9.80;;;6.90;;
64459;SDS011;50828;53.756;21.140;2023-04-24T22:32:43;10.70;;;7.50;;
64459;SDS011;50828;53.756;21.140;2023-04-24T22:37:54;10.60;;;7.30;;
64459;SDS011;50828;53.756;21.140;2023-04-24T22:43:02;11.30;;;7.70;;
64459;SDS011;50828;53.756;21.140;2023-04-24T22:48:10;9.90;;;7.80;;
64459;SDS011;50828;53.756;21.140;2023-04-24T22:53:17;11.40;;;7.50;;
64459;SDS011;50828;53.756;21.140;2023-04-24T22:58:26;12.10;;;7.90;;
64459;SDS011;50828;53.756;21.140;2023-04-24T23:03:33;11.60;;;8.10;;
64459;SDS011;50828;53.756;21.140;2023-04-24T23:08:42;12.30;;;7.70;;
64459;SDS011;50828;53.756;21.140;2023-04-24T23:13:49;15.50;;;8.20;;
64459;SDS011;50828;53.756;21.140;2023-04-24T23:18:57;13.30;;;8.20;;
64459;SDS011;50828;53.756;21.140;2023-04-24T23:24:05;17.20;;;9.10;;
64459;SDS011;50828;53.756;21.140;2023-04-24T23:29:12;11.50;;;7.50;;
64459;SDS011;50828;53.756;21.140;2023-04-24T23:34:20;10.60;;;8.00;;
64459;SDS011;50828;53.756;21.140;2023-04-24T23:39:28;13.50;;;8.90;;
64459;SDS011;50828;53.756;21.140;2023-04-24T23:44:35;14.90;;;8.80;;
64459;SDS011;50828;53.756;21.140;2023-04-24T23:49:42;13.40;;;9.10;;
64459;SDS011;50828;53.756;21.140;2023-04-24T23:54:50;16.00;;;9.80;;
64459;SDS011;50828;53.756;21.140;2023-04-24T23:59:57;14.50;;;9.70;;
